Language: 


Des rapports , des résumés tant et plus, au choix de chacun....


Données Historiques de Météogheer
Journalier Rapport pour Janvier 28, 2017 Unitée:  Les deux    Impériale   Métrique
Suivant Jour »
Journalier Hebdomadaire Mensuel Annuel Sur mesure
  Max: Min: Moyenne:
Température: 48.4 °F /  9.1 °C 32 °F /  0.0 °C 43.3 °F /  6.3 °C
Point de rosée: 42.4 °F /  5.8 °C 31.6 °F /  -0.2 °C 37.4 °F /  3 °C
Humidité: 97% 0% 80%
Vent: 16.8mph /  27.0km/h - 6.3mph /  10.2km/h
Rafales: 19.5mph /  31.4km/h - -
Vent- - South
Pression: 30 in /  1016.1 hPa 0 in /  0.0 hPa -
Pluie: 0 in /  0.0 mm    
Historical Graphs
 
 
Données tabulaires pour Janvier 28, 2017
Heure Température Point de rosée Pression Vent Vent Rafales Humidité Pluie Taux (Horaire) Conditions
00:00 42.8 °F /  6.0 °C 34 °F /  1.1 °C 29.9in /  1013.1hPa South 6.3mph /  10.1km/h 11mph /  17.7km/h 71% 0in /  0.0mm
00:05 42.8 °F /  6.0 °C 33.6 °F /  0.9 °C 29.9in /  1013.1hPa South 4mph /  6.4km/h 11mph /  17.7km/h 70% 0in /  0.0mm
00:15 43 °F /  6.1 °C 33.8 °F /  1.0 °C 29.9in /  1013.1hPa SE 9.2mph /  14.8km/h 10.1mph /  16.3km/h 70% 0in /  0.0mm
00:20 43 °F /  6.1 °C 33.4 °F /  0.8 °C 29.9in /  1013.1hPa SSE 6mph /  9.7km/h 10.1mph /  16.3km/h 69% 0in /  0.0mm
00:25 42.8 °F /  6.0 °C 33.3 °F /  0.7 °C 29.9in /  1013.1hPa SSW 3.6mph /  5.8km/h 10.1mph /  16.3km/h 69% 0in /  0.0mm
00:30 42.8 °F /  6.0 °C 33.3 °F /  0.7 °C 29.9in /  1013.1hPa SSE 3.8mph /  6.1km/h 8.5mph /  13.7km/h 69% 0in /  0.0mm
00:35 42.8 °F /  6.0 °C 33.3 °F /  0.7 °C 29.9in /  1013.1hPa South 6.7mph /  10.8km/h 8.5mph /  13.7km/h 69% 0in /  0.0mm
00:40 42.8 °F /  6.0 °C 32.9 °F /  0.5 °C 29.9in /  1013.1hPa SSE 7.4mph /  11.9km/h 11mph /  17.7km/h 68% 0in /  0.0mm
00:45 42.8 °F /  6.0 °C 32.9 °F /  0.5 °C 29.9in /  1013.1hPa SSE 4.7mph /  7.6km/h 11mph /  17.7km/h 68% 0in /  0.0mm
00:50 42.8 °F /  6.0 °C 32.9 °F /  0.5 °C 29.9in /  1013.1hPa SSE 5.6mph /  9.0km/h 10.7mph /  17.2km/h 68% 0in /  0.0mm
00:55 42.8 °F /  6.0 °C 32.9 °F /  0.5 °C 29.9in /  1012.1hPa ESE 9.8mph /  15.8km/h 10.7mph /  17.2km/h 68% 0in /  0.0mm
01:00 43 °F /  6.1 °C 33.1 °F /  0.6 °C 29.9in /  1012.1hPa South 7.6mph /  12.2km/h 9.8mph /  15.8km/h 68% 0in /  0.0mm
01:05 43.2 °F /  6.2 °C 32.9 °F /  0.5 °C 29.9in /  1012.1hPa SSE 4.3mph /  6.9km/h 12.5mph /  20.1km/h 67% 0in /  0.0mm
01:10 43.2 °F /  6.2 °C 32.9 °F /  0.5 °C 29.9in /  1012.1hPa South 4.3mph /  6.9km/h 12.5mph /  20.1km/h 67% 0in /  0.0mm
01:15 43.2 °F /  6.2 °C 32.9 °F /  0.5 °C 29.9in /  1012.1hPa South 6.5mph /  10.5km/h 13.4mph /  21.6km/h 67% 0in /  0.0mm
01:20 43.2 °F /  6.2 °C 32.5 °F /  0.3 °C 29.9in /  1012.1hPa SE 7.4mph /  11.9km/h 13.4mph /  21.6km/h 66% 0in /  0.0mm
01:21 43.2 °F /  6.2 °C 32.5 °F /  0.3 °C 29.9in /  1012.1hPa South 6.3mph /  10.1km/h 13.4mph /  21.6km/h 66% 0in /  0.0mm
01:26 43 °F /  6.1 °C 32.4 °F /  0.2 °C 29.9in /  1013.1hPa SSE 9.6mph /  15.4km/h 11mph /  17.7km/h 66% 0in /  0.0mm
01:31 43 °F /  6.1 °C 32.4 °F /  0.2 °C 29.9in /  1013.1hPa South 7.6mph /  12.2km/h 10.7mph /  17.2km/h 66% 0in /  0.0mm
01:36 42.8 °F /  6.0 °C 31.8 °F /  -0.1 °C 29.9in /  1013.1hPa South 3.1mph /  5.0km/h 10.7mph /  17.2km/h 65% 0in /  0.0mm
01:41 42.6 °F /  5.9 °C 31.6 °F /  -0.2 °C 29.9in /  1012.1hPa SSW 8.1mph /  13.0km/h 10.5mph /  16.9km/h 65% 0in /  0.0mm
01:46 42.6 °F /  5.9 °C 32 °F /  0.0 °C 29.9in /  1012.1hPa SSE 12.8mph /  20.6km/h 12.8mph /  20.6km/h 66% 0in /  0.0mm
01:51 42.4 °F /  5.8 °C 31.8 °F /  -0.1 °C 29.9in /  1012.1hPa South 6mph /  9.7km/h 12.8mph /  20.6km/h 66% 0in /  0.0mm
01:56 42.4 °F /  5.8 °C 31.8 °F /  -0.1 °C 29.9in /  1012.1hPa ESE 7.8mph /  12.6km/h 17mph /  27.4km/h 66% 0in /  0.0mm
02:02 32 °F /  0.0 °C 31.6 °F /  -0.2 °C 0in /  0.0hPa South 8.7mph /  14.0km/h 8.7mph /  14.0km/h 0% 0in /  0.0mm
02:12 42.1 °F /  5.6 °C 31.8 °F /  -0.1 °C 29.9in /  1012.1hPa SSE 3.8mph /  6.1km/h 10.5mph /  16.9km/h 67% 0in /  0.0mm
02:17 42.1 °F /  5.6 °C 31.8 °F /  -0.1 °C 29.9in /  1012.1hPa South 4.3mph /  6.9km/h 10.5mph /  16.9km/h 67% 0in /  0.0mm
02:22 42.1 °F /  5.6 °C 31.8 °F /  -0.1 °C 29.9in /  1012.1hPa SSE 6.5mph /  10.5km/h 10.5mph /  16.9km/h 67% 0in /  0.0mm
02:27 41.9 °F /  5.5 °C 31.6 °F /  -0.2 °C 29.9in /  1012.1hPa SSE 5.4mph /  8.7km/h 10.5mph /  16.9km/h 67% 0in /  0.0mm
02:32 41.9 °F /  5.5 °C 32.2 °F /  0.1 °C 29.9in /  1012.1hPa ESE 9.6mph /  15.4km/h 10.1mph /  16.3km/h 68% 0in /  0.0mm
02:37 41.9 °F /  5.5 °C 32.2 °F /  0.1 °C 29.9in /  1012.1hPa South 8.5mph /  13.7km/h 9.6mph /  15.4km/h 68% 0in /  0.0mm
02:42 41.9 °F /  5.5 °C 32.2 °F /  0.1 °C 29.9in /  1012.1hPa SSE 11mph /  17.7km/h 11mph /  17.7km/h 68% 0in /  0.0mm
02:47 42.1 °F /  5.6 °C 32.4 °F /  0.2 °C 29.9in /  1012.1hPa SSE 5.8mph /  9.3km/h 11.2mph /  18.0km/h 68% 0in /  0.0mm
02:57 42.1 °F /  5.6 °C 32.4 °F /  0.2 °C 29.9in /  1012.1hPa SSE 4.9mph /  7.9km/h 10.1mph /  16.3km/h 68% 0in /  0.0mm
03:02 41.9 °F /  5.5 °C 32.2 °F /  0.1 °C 29.9in /  1012.1hPa SE 4mph /  6.4km/h 9.6mph /  15.4km/h 68% 0in /  0.0mm
03:12 41.9 °F /  5.5 °C 32.4 °F /  0.2 °C 29.9in /  1012.1hPa SSE 5.6mph /  9.0km/h 8.5mph /  13.7km/h 69% 0in /  0.0mm
03:17 41.9 °F /  5.5 °C 32.4 °F /  0.2 °C 29.9in /  1012.1hPa SE 3.4mph /  5.5km/h 10.7mph /  17.2km/h 69% 0in /  0.0mm
03:22 41.7 °F /  5.4 °C 32.4 °F /  0.2 °C 29.9in /  1012.1hPa SE 3.4mph /  5.5km/h 10.7mph /  17.2km/h 69% 0in /  0.0mm
03:27 41.5 °F /  5.3 °C 32.2 °F /  0.1 °C 29.9in /  1012.1hPa SSE 5.8mph /  9.3km/h 8.5mph /  13.7km/h 69% 0in /  0.0mm
03:32 41.4 °F /  5.2 °C 31.8 °F /  -0.1 °C 29.9in /  1012.1hPa SSE 11mph /  17.7km/h 11mph /  17.7km/h 69% 0in /  0.0mm
03:37 41.2 °F /  5.1 °C 31.8 °F /  -0.1 °C 29.9in /  1011.1hPa SE 7.2mph /  11.6km/h 11mph /  17.7km/h 69% 0in /  0.0mm
03:47 41 °F /  5.0 °C 32 °F /  0.0 °C 29.9in /  1011.1hPa SSE 5.8mph /  9.3km/h 10.1mph /  16.3km/h 70% 0in /  0.0mm
03:52 40.8 °F /  4.9 °C 31.8 °F /  -0.1 °C 29.9in /  1011.1hPa SSE 6.5mph /  10.5km/h 10.1mph /  16.3km/h 70% 0in /  0.0mm
03:57 41 °F /  5.0 °C 32 °F /  0.0 °C 29.9in /  1011.1hPa SSE 4mph /  6.4km/h 8.7mph /  14.0km/h 70% 0in /  0.0mm
04:07 41.2 °F /  5.1 °C 32.5 °F /  0.3 °C 29.9in /  1011.1hPa SE 9.6mph /  15.4km/h 11mph /  17.7km/h 71% 0in /  0.0mm
04:13 41.4 °F /  5.2 °C 32.5 °F /  0.3 °C 29.9in /  1011.1hPa SE 3.8mph /  6.1km/h 10.7mph /  17.2km/h 71% 0in /  0.0mm
04:18 41.4 °F /  5.2 °C 33.1 °F /  0.6 °C 29.9in /  1011.1hPa SSE 7.2mph /  11.6km/h 12.3mph /  19.8km/h 72% 0in /  0.0mm
04:23 41.4 °F /  5.2 °C 33.1 °F /  0.6 °C 29.9in /  1011.1hPa SSW 9.6mph /  15.4km/h 12.3mph /  19.8km/h 72% 0in /  0.0mm
04:26 41.5 °F /  5.3 °C 33.3 °F /  0.7 °C 29.9in /  1011.1hPa SSE 6.3mph /  10.1km/h 12.1mph /  19.5km/h 72% 0in /  0.0mm
04:27 41.5 °F /  5.3 °C 33.3 °F /  0.7 °C 29.9in /  1011.1hPa South 8.1mph /  13.0km/h 12.1mph /  19.5km/h 72% 0in /  0.0mm
04:32 41.5 °F /  5.3 °C 33.3 °F /  0.7 °C 29.9in /  1011.1hPa SSE 10.7mph /  17.2km/h 12.1mph /  19.5km/h 72% 0in /  0.0mm
04:37 41.5 °F /  5.3 °C 33.3 °F /  0.7 °C 29.8in /  1010.0hPa SSE 7.6mph /  12.2km/h 11.9mph /  19.1km/h 72% 0in /  0.0mm
04:42 41.5 °F /  5.3 °C 33.4 °F /  0.8 °C 29.8in /  1010.0hPa South 5.6mph /  9.0km/h 11mph /  17.7km/h 73% 0in /  0.0mm
04:52 41.7 °F /  5.4 °C 33.3 °F /  0.7 °C 29.9in /  1011.1hPa SSE 10.1mph /  16.3km/h 13.9mph /  22.4km/h 72% 0in /  0.0mm
04:57 41.9 °F /  5.5 °C 33.4 °F /  0.8 °C 29.9in /  1011.1hPa South 5.6mph /  9.0km/h 13.9mph /  22.4km/h 72% 0in /  0.0mm
05:02 41.9 °F /  5.5 °C 33.4 °F /  0.8 °C 29.9in /  1011.1hPa SSE 7.6mph /  12.2km/h 13.4mph /  21.6km/h 72% 0in /  0.0mm
05:07 41.9 °F /  5.5 °C 33.3 °F /  0.7 °C 29.8in /  1010.0hPa SSE 6.5mph /  10.5km/h 13.4mph /  21.6km/h 71% 0in /  0.0mm
05:12 41.7 °F /  5.4 °C 33.1 °F /  0.6 °C 29.8in /  1010.0hPa SSE 5.6mph /  9.0km/h 13.2mph /  21.2km/h 71% 0in /  0.0mm
05:17 41.5 °F /  5.3 °C 32.7 °F /  0.4 °C 29.8in /  1010.0hPa South 7.8mph /  12.6km/h 12.3mph /  19.8km/h 71% 0in /  0.0mm
05:22 41.5 °F /  5.3 °C 32.7 °F /  0.4 °C 29.9in /  1011.1hPa SSE 8.5mph /  13.7km/h 10.7mph /  17.2km/h 71% 0in /  0.0mm
05:27 41.5 °F /  5.3 °C 32.7 °F /  0.4 °C 29.9in /  1011.1hPa SSE 8.5mph /  13.7km/h 10.7mph /  17.2km/h 71% 0in /  0.0mm
05:32 41.5 °F /  5.3 °C 32.7 °F /  0.4 °C 29.9in /  1011.1hPa SSE 8.1mph /  13.0km/h 11.2mph /  18.0km/h 71% 0in /  0.0mm
05:37 41.7 °F /  5.4 °C 33.3 °F /  0.7 °C 29.9in /  1011.1hPa SSE 7.8mph /  12.6km/h 12.8mph /  20.6km/h 72% 0in /  0.0mm
05:42 41.7 °F /  5.4 °C 33.1 °F /  0.6 °C 29.9in /  1011.1hPa ESE 6mph /  9.7km/h 12.8mph /  20.6km/h 71% 0in /  0.0mm
05:47 41.7 °F /  5.4 °C 33.1 °F /  0.6 °C 29.9in /  1011.1hPa South 7.8mph /  12.6km/h 12.8mph /  20.6km/h 71% 0in /  0.0mm
05:52 41.7 °F /  5.4 °C 33.1 °F /  0.6 °C 29.9in /  1011.1hPa South 12.5mph /  20.1km/h 12.8mph /  20.6km/h 71% 0in /  0.0mm
05:57 41.5 °F /  5.3 °C 32.7 °F /  0.4 °C 29.9in /  1011.1hPa South 6.5mph /  10.5km/h 12.5mph /  20.1km/h 71% 0in /  0.0mm
06:02 41.5 °F /  5.3 °C 32.7 °F /  0.4 °C 29.9in /  1011.1hPa SSE 8.7mph /  14.0km/h 10.7mph /  17.2km/h 71% 0in /  0.0mm
06:07 41.5 °F /  5.3 °C 32.7 °F /  0.4 °C 29.9in /  1011.1hPa SSE 4mph /  6.4km/h 10.7mph /  17.2km/h 71% 0in /  0.0mm
06:12 41.4 °F /  5.2 °C 33.1 °F /  0.6 °C 29.9in /  1011.1hPa SSE 6mph /  9.7km/h 13.2mph /  21.2km/h 72% 0in /  0.0mm
06:17 41.4 °F /  5.2 °C 33.1 °F /  0.6 °C 29.9in /  1011.1hPa SSE 5.6mph /  9.0km/h 13.2mph /  21.2km/h 72% 0in /  0.0mm
06:22 41.4 °F /  5.2 °C 33.1 °F /  0.6 °C 29.9in /  1011.1hPa SSE 3.4mph /  5.5km/h 9.8mph /  15.8km/h 72% 0in /  0.0mm
06:27 41.4 °F /  5.2 °C 33.1 °F /  0.6 °C 29.9in /  1011.1hPa SSE 10.7mph /  17.2km/h 10.7mph /  17.2km/h 72% 0in /  0.0mm
06:37 41.4 °F /  5.2 °C 33.3 °F /  0.7 °C 29.9in /  1011.1hPa South 4.9mph /  7.9km/h 12.3mph /  19.8km/h 73% 0in /  0.0mm
06:42 41.4 °F /  5.2 °C 33.6 °F /  0.9 °C 29.9in /  1011.1hPa South 6.3mph /  10.1km/h 12.8mph /  20.6km/h 74% 0in /  0.0mm
06:47 41.4 °F /  5.2 °C 33.6 °F /  0.9 °C 29.9in /  1011.1hPa SSE 6.3mph /  10.1km/h 12.8mph /  20.6km/h 74% 0in /  0.0mm
06:57 41.5 °F /  5.3 °C 34.2 °F /  1.2 °C 29.9in /  1011.1hPa SSE 12.5mph /  20.1km/h 13.2mph /  21.2km/h 75% 0in /  0.0mm
07:07 42.1 °F /  5.6 °C 35.1 °F /  1.7 °C 29.9in /  1011.1hPa SSW 6.5mph /  10.5km/h 15.4mph /  24.8km/h 76% 0in /  0.0mm
07:12 42.1 °F /  5.6 °C 35.1 °F /  1.7 °C 29.9in /  1011.1hPa South 8.5mph /  13.7km/h 14.5mph /  23.3km/h 76% 0in /  0.0mm
07:17 42.1 °F /  5.6 °C 35.1 °F /  1.7 °C 29.9in /  1011.1hPa South 7.2mph /  11.6km/h 12.3mph /  19.8km/h 76% 0in /  0.0mm
07:22 42.3 °F /  5.7 °C 35.2 °F /  1.8 °C 29.9in /  1011.1hPa South 10.1mph /  16.3km/h 17mph /  27.4km/h 76% 0in /  0.0mm
07:27 42.3 °F /  5.7 °C 35.2 °F /  1.8 °C 29.9in /  1011.1hPa SSW 8.5mph /  13.7km/h 17mph /  27.4km/h 76% 0in /  0.0mm
07:32 42.3 °F /  5.7 °C 35.2 °F /  1.8 °C 29.9in /  1011.1hPa SSW 6.3mph /  10.1km/h 11mph /  17.7km/h 76% 0in /  0.0mm
07:37 42.1 °F /  5.6 °C 35.1 °F /  1.7 °C 29.8in /  1010.0hPa SSE 5.4mph /  8.7km/h 11.9mph /  19.1km/h 76% 0in /  0.0mm
07:42 42.3 °F /  5.7 °C 35.2 °F /  1.8 °C 29.8in /  1010.0hPa SSE 6.3mph /  10.1km/h 12.8mph /  20.6km/h 76% 0in /  0.0mm
07:47 42.3 °F /  5.7 °C 35.2 °F /  1.8 °C 29.8in /  1010.0hPa South 6.3mph /  10.1km/h 12.8mph /  20.6km/h 76% 0in /  0.0mm
07:52 42.3 °F /  5.7 °C 35.2 °F /  1.8 °C 29.9in /  1011.1hPa South 12.3mph /  19.8km/h 12.3mph /  19.8km/h 76% 0in /  0.0mm
07:57 42.3 °F /  5.7 °C 35.2 °F /  1.8 °C 29.9in /  1011.1hPa SSE 9.8mph /  15.8km/h 12.3mph /  19.8km/h 76% 0in /  0.0mm
08:02 42.1 °F /  5.6 °C 34.7 °F /  1.5 °C 29.9in /  1011.1hPa SE 6.3mph /  10.1km/h 12.3mph /  19.8km/h 75% 0in /  0.0mm
08:07 42.1 °F /  5.6 °C 34.7 °F /  1.5 °C 29.9in /  1011.1hPa SSW 6.5mph /  10.5km/h 12.1mph /  19.5km/h 75% 0in /  0.0mm
08:12 42.1 °F /  5.6 °C 34.7 °F /  1.5 °C 29.9in /  1011.1hPa SSW 7.4mph /  11.9km/h 10.7mph /  17.2km/h 75% 0in /  0.0mm
08:17 42.1 °F /  5.6 °C 34.7 °F /  1.5 °C 29.9in /  1011.1hPa WSW 5.8mph /  9.3km/h 13mph /  20.9km/h 75% 0in /  0.0mm
08:22 42.1 °F /  5.6 °C 35.1 °F /  1.7 °C 29.9in /  1011.1hPa South 8.1mph /  13.0km/h 13.2mph /  21.2km/h 76% 0in /  0.0mm
08:27 42.1 °F /  5.6 °C 35.1 °F /  1.7 °C 29.9in /  1011.1hPa South 12.1mph /  19.5km/h 13.2mph /  21.2km/h 76% 0in /  0.0mm
08:32 41.9 °F /  5.5 °C 34.9 °F /  1.6 °C 29.9in /  1011.1hPa South 7.4mph /  11.9km/h 12.1mph /  19.5km/h 76% 0in /  0.0mm
08:37 41.7 °F /  5.4 °C 34.3 °F /  1.3 °C 29.9in /  1011.1hPa SSE 10.1mph /  16.3km/h 12.1mph /  19.5km/h 75% 0in /  0.0mm
08:47 41.5 °F /  5.3 °C 34.5 °F /  1.4 °C 29.9in /  1011.1hPa SSW 8.5mph /  13.7km/h 12.8mph /  20.6km/h 76% 0in /  0.0mm
08:52 41.7 °F /  5.4 °C 34.7 °F /  1.5 °C 29.9in /  1012.1hPa SSE 6mph /  9.7km/h 10.7mph /  17.2km/h 76% 0in /  0.0mm
08:57 41.7 °F /  5.4 °C 34.7 °F /  1.5 °C 29.9in /  1012.1hPa SSE 5.4mph /  8.7km/h 10.7mph /  17.2km/h 76% 0in /  0.0mm
09:02 41.9 °F /  5.5 °C 35.2 °F /  1.8 °C 29.9in /  1012.1hPa SSE 10.1mph /  16.3km/h 11.9mph /  19.1km/h 77% 0in /  0.0mm
09:07 42.1 °F /  5.6 °C 35.4 °F /  1.9 °C 29.9in /  1012.1hPa South 5.6mph /  9.0km/h 12.3mph /  19.8km/h 77% 0in /  0.0mm
09:12 42.3 °F /  5.7 °C 35.4 °F /  1.9 °C 29.9in /  1012.1hPa SSW 5.4mph /  8.7km/h 12.3mph /  19.8km/h 77% 0in /  0.0mm
09:17 42.3 °F /  5.7 °C 35.4 °F /  1.9 °C 29.9in /  1012.1hPa South 12.3mph /  19.8km/h 17.2mph /  27.7km/h 77% 0in /  0.0mm
09:22 42.4 °F /  5.8 °C 35.8 °F /  2.1 °C 29.9in /  1012.1hPa SSE 6.9mph /  11.1km/h 17.2mph /  27.7km/h 77% 0in /  0.0mm
09:27 42.4 °F /  5.8 °C 35.8 °F /  2.1 °C 29.9in /  1012.1hPa South 8.1mph /  13.0km/h 15.7mph /  25.3km/h 77% 0in /  0.0mm
09:32 42.6 °F /  5.9 °C 36 °F /  2.2 °C 29.9in /  1012.1hPa South 8.5mph /  13.7km/h 15.7mph /  25.3km/h 77% 0in /  0.0mm
09:37 42.8 °F /  6.0 °C 36 °F /  2.2 °C 29.9in /  1012.1hPa South 7.2mph /  11.6km/h 14.3mph /  23.0km/h 77% 0in /  0.0mm
09:42 43.2 °F /  6.2 °C 36.3 °F /  2.4 °C 29.9in /  1012.1hPa SSW 5.8mph /  9.3km/h 14.3mph /  23.0km/h 77% 0in /  0.0mm
09:47 43.2 °F /  6.2 °C 36.1 °F /  2.3 °C 29.9in /  1012.1hPa SSE 7.4mph /  11.9km/h 12.5mph /  20.1km/h 76% 0in /  0.0mm
09:52 43.2 °F /  6.2 °C 36.1 °F /  2.3 °C 29.9in /  1012.1hPa South 6.5mph /  10.5km/h 12.5mph /  20.1km/h 76% 0in /  0.0mm
09:57 43.3 °F /  6.3 °C 36.1 °F /  2.3 °C 29.9in /  1012.1hPa SSE 8.7mph /  14.0km/h 13mph /  20.9km/h 76% 0in /  0.0mm
10:02 43.3 °F /  6.3 °C 36.1 °F /  2.3 °C 29.9in /  1012.1hPa South 7.4mph /  11.9km/h 13mph /  20.9km/h 76% 0in /  0.0mm
10:07 43.5 °F /  6.4 °C 36.7 °F /  2.6 °C 29.9in /  1012.1hPa SSE 6.3mph /  10.1km/h 12.8mph /  20.6km/h 77% 0in /  0.0mm
10:12 44.2 °F /  6.8 °C 37.4 °F /  3.0 °C 29.9in /  1012.1hPa South 16.8mph /  27.0km/h 16.8mph /  27.0km/h 77% 0in /  0.0mm
10:17 44.2 °F /  6.8 °C 37 °F /  2.8 °C 29.9in /  1012.1hPa South 6mph /  9.7km/h 16.8mph /  27.0km/h 76% 0in /  0.0mm
10:22 44.8 °F /  7.1 °C 37.6 °F /  3.1 °C 29.9in /  1012.1hPa SSE 9.6mph /  15.4km/h 16.8mph /  27.0km/h 76% 0in /  0.0mm
10:27 45.1 °F /  7.3 °C 37.9 °F /  3.3 °C 29.9in /  1012.1hPa SSW 7.2mph /  11.6km/h 13mph /  20.9km/h 76% 0in /  0.0mm
10:32 45.9 °F /  7.7 °C 38.7 °F /  3.7 °C 29.9in /  1012.1hPa SSW 6.3mph /  10.1km/h 13mph /  20.9km/h 76% 0in /  0.0mm
10:37 46.6 °F /  8.1 °C 39 °F /  3.9 °C 29.9in /  1012.1hPa SSE 10.7mph /  17.2km/h 12.8mph /  20.6km/h 75% 0in /  0.0mm
10:42 46.8 °F /  8.2 °C 39.4 °F /  4.1 °C 29.9in /  1012.1hPa SSW 8.5mph /  13.7km/h 12.5mph /  20.1km/h 75% 0in /  0.0mm
10:47 46.9 °F /  8.3 °C 39 °F /  3.9 °C 29.9in /  1012.1hPa SSW 14.5mph /  23.3km/h 16.1mph /  25.9km/h 74% 0in /  0.0mm
10:53 47.3 °F /  8.5 °C 39 °F /  3.9 °C 29.9in /  1012.1hPa South 8.5mph /  13.7km/h 16.1mph /  25.9km/h 73% 0in /  0.0mm
10:57 47.3 °F /  8.5 °C 39 °F /  3.9 °C 29.9in /  1012.1hPa South 10.3mph /  16.6km/h 17.2mph /  27.7km/h 73% 0in /  0.0mm
11:02 47.7 °F /  8.7 °C 39 °F /  3.9 °C 29.9in /  1012.1hPa South 15.2mph /  24.5km/h 17.2mph /  27.7km/h 72% 0in /  0.0mm
11:07 47.3 °F /  8.5 °C 38.5 °F /  3.6 °C 29.9in /  1013.1hPa South 13mph /  20.9km/h 17.7mph /  28.5km/h 71% 0in /  0.0mm
11:12 46.9 °F /  8.3 °C 38.1 °F /  3.4 °C 29.9in /  1013.1hPa South 10.3mph /  16.6km/h 19.5mph /  31.4km/h 71% 0in /  0.0mm
11:17 46.9 °F /  8.3 °C 38.5 °F /  3.6 °C 29.9in /  1013.1hPa South 11mph /  17.7km/h 19.5mph /  31.4km/h 72% 0in /  0.0mm
11:22 46.9 °F /  8.3 °C 38.5 °F /  3.6 °C 29.9in /  1013.1hPa South 9.8mph /  15.8km/h 14.8mph /  23.8km/h 72% 0in /  0.0mm
11:27 46.8 °F /  8.2 °C 38.7 °F /  3.7 °C 29.9in /  1013.1hPa SSW 11.4mph /  18.3km/h 13.6mph /  21.9km/h 73% 0in /  0.0mm
11:32 46.9 °F /  8.3 °C 38.8 °F /  3.8 °C 29.9in /  1013.1hPa SSW 7.8mph /  12.6km/h 13.4mph /  21.6km/h 73% 0in /  0.0mm
11:42 47.3 °F /  8.5 °C 39 °F /  3.9 °C 29.9in /  1013.1hPa WSW 8.1mph /  13.0km/h 13.2mph /  21.2km/h 73% 0in /  0.0mm
11:47 47.3 °F /  8.5 °C 39.6 °F /  4.2 °C 29.9in /  1013.1hPa SSW 8.5mph /  13.7km/h 13.2mph /  21.2km/h 74% 0in /  0.0mm
11:52 47.7 °F /  8.7 °C 39.7 °F /  4.3 °C 29.9in /  1013.1hPa SSE 6mph /  9.7km/h 13mph /  20.9km/h 74% 0in /  0.0mm
11:57 47.7 °F /  8.7 °C 39.7 °F /  4.3 °C 29.9in /  1013.1hPa SSW 9.2mph /  14.8km/h 12.5mph /  20.1km/h 74% 0in /  0.0mm
12:02 47.1 °F /  8.4 °C 39 °F /  3.9 °C 29.9in /  1013.1hPa SSW 7.8mph /  12.6km/h 11.9mph /  19.1km/h 73% 0in /  0.0mm
12:07 46.9 °F /  8.3 °C 39 °F /  3.9 °C 29.9in /  1013.1hPa SSW 10.7mph /  17.2km/h 11.9mph /  19.1km/h 74% 0in /  0.0mm
12:12 46.9 °F /  8.3 °C 39 °F /  3.9 °C 29.9in /  1013.1hPa South 8.5mph /  13.7km/h 11.9mph /  19.1km/h 74% 0in /  0.0mm
12:17 46.9 °F /  8.3 °C 39.6 °F /  4.2 °C 29.9in /  1013.1hPa SSW 8.5mph /  13.7km/h 10.7mph /  17.2km/h 75% 0in /  0.0mm
12:22 47.1 °F /  8.4 °C 39.9 °F /  4.4 °C 29.9in /  1013.1hPa South 6.5mph /  10.5km/h 9.6mph /  15.4km/h 76% 0in /  0.0mm
12:27 47.3 °F /  8.5 °C 40.3 °F /  4.6 °C 29.9in /  1013.1hPa SSW 5.4mph /  8.7km/h 8.7mph /  14.0km/h 76% 0in /  0.0mm
12:32 47.7 °F /  8.7 °C 40.5 °F /  4.7 °C 29.9in /  1013.1hPa SSW 7.2mph /  11.6km/h 8.7mph /  14.0km/h 76% 0in /  0.0mm
12:37 48 °F /  8.9 °C 40.8 °F /  4.9 °C 29.9in /  1012.1hPa SSW 6.3mph /  10.1km/h 12.8mph /  20.6km/h 76% 0in /  0.0mm
12:42 48.2 °F /  9.0 °C 41 °F /  5.0 °C 29.9in /  1012.1hPa SW 12.5mph /  20.1km/h 14.3mph /  23.0km/h 76% 0in /  0.0mm
12:43 48.2 °F /  9.0 °C 41 °F /  5.0 °C 29.9in /  1012.1hPa WSW 6mph /  9.7km/h 14.3mph /  23.0km/h 76% 0in /  0.0mm
12:48 48.2 °F /  9.0 °C 40.6 °F /  4.8 °C 29.9in /  1012.1hPa SSW 14.3mph /  23.0km/h 14.3mph /  23.0km/h 75% 0in /  0.0mm
12:53 48.2 °F /  9.0 °C 40.6 °F /  4.8 °C 29.9in /  1013.1hPa SW 10.7mph /  17.2km/h 14.3mph /  23.0km/h 75% 0in /  0.0mm
12:58 48.2 °F /  9.0 °C 40.6 °F /  4.8 °C 29.9in /  1013.1hPa South 8.5mph /  13.7km/h 14.3mph /  23.0km/h 75% 0in /  0.0mm
13:03 48 °F /  8.9 °C 40.5 °F /  4.7 °C 29.9in /  1013.1hPa WSW 9.8mph /  15.8km/h 13.2mph /  21.2km/h 75% 0in /  0.0mm
13:08 48 °F /  8.9 °C 40.5 °F /  4.7 °C 29.9in /  1013.1hPa SSW 6mph /  9.7km/h 13.9mph /  22.4km/h 75% 0in /  0.0mm
13:13 48.4 °F /  9.1 °C 41.2 °F /  5.1 °C 29.9in /  1013.1hPa SW 11mph /  17.7km/h 13.9mph /  22.4km/h 76% 0in /  0.0mm
13:18 48.2 °F /  9.0 °C 41 °F /  5.0 °C 29.9in /  1013.1hPa WSW 10.1mph /  16.3km/h 13.2mph /  21.2km/h 76% 0in /  0.0mm
13:23 48.2 °F /  9.0 °C 41 °F /  5.0 °C 29.9in /  1013.1hPa SW 10.3mph /  16.6km/h 13.2mph /  21.2km/h 76% 0in /  0.0mm
13:28 48.2 °F /  9.0 °C 41 °F /  5.0 °C 29.9in /  1013.1hPa SW 10.3mph /  16.6km/h 12.5mph /  20.1km/h 76% 0in /  0.0mm
13:33 48.2 °F /  9.0 °C 41 °F /  5.0 °C 29.9in /  1013.1hPa SSW 10.7mph /  17.2km/h 11.9mph /  19.1km/h 76% 0in /  0.0mm
13:38 48 °F /  8.9 °C 40.8 °F /  4.9 °C 29.9in /  1013.1hPa SW 7.6mph /  12.2km/h 12.5mph /  20.1km/h 76% 0in /  0.0mm
13:43 48 °F /  8.9 °C 40.8 °F /  4.9 °C 29.9in /  1013.1hPa SW 9.2mph /  14.8km/h 12.8mph /  20.6km/h 76% 0in /  0.0mm
13:48 48 °F /  8.9 °C 40.8 °F /  4.9 °C 29.9in /  1013.1hPa South 5.8mph /  9.3km/h 12.8mph /  20.6km/h 76% 0in /  0.0mm
13:53 47.8 °F /  8.8 °C 40.6 °F /  4.8 °C 29.9in /  1013.1hPa South 5.4mph /  8.7km/h 9.4mph /  15.1km/h 76% 0in /  0.0mm
13:58 47.8 °F /  8.8 °C 40.6 °F /  4.8 °C 29.9in /  1013.1hPa SSW 9.6mph /  15.4km/h 9.6mph /  15.4km/h 76% 0in /  0.0mm
14:03 47.7 °F /  8.7 °C 40.8 °F /  4.9 °C 29.9in /  1013.1hPa SW 10.3mph /  16.6km/h 12.3mph /  19.8km/h 77% 0in /  0.0mm
14:08 47.5 °F /  8.6 °C 41 °F /  5.0 °C 29.9in /  1014.1hPa SW 8.1mph /  13.0km/h 12.3mph /  19.8km/h 78% 0in /  0.0mm
14:13 47.5 °F /  8.6 °C 41 °F /  5.0 °C 29.9in /  1014.1hPa SW 5.6mph /  9.0km/h 11mph /  17.7km/h 78% 0in /  0.0mm
14:18 47.7 °F /  8.7 °C 41.5 °F /  5.3 °C 29.9in /  1014.1hPa SSW 8.7mph /  14.0km/h 8.7mph /  14.0km/h 79% 0in /  0.0mm
14:23 47.7 °F /  8.7 °C 41.5 °F /  5.3 °C 29.9in /  1013.1hPa SW 7.6mph /  12.2km/h 10.3mph /  16.6km/h 79% 0in /  0.0mm
14:28 47.7 °F /  8.7 °C 41.5 °F /  5.3 °C 29.9in /  1013.1hPa SW 6.3mph /  10.1km/h 10.5mph /  16.9km/h 79% 0in /  0.0mm
14:33 47.7 °F /  8.7 °C 41.7 °F /  5.4 °C 29.9in /  1013.1hPa SSW 4.9mph /  7.9km/h 10.5mph /  16.9km/h 80% 0in /  0.0mm
14:38 47.7 °F /  8.7 °C 41.7 °F /  5.4 °C 29.9in /  1013.1hPa SW 5.8mph /  9.3km/h 8.7mph /  14.0km/h 80% 0in /  0.0mm
14:43 47.7 °F /  8.7 °C 41.7 °F /  5.4 °C 29.9in /  1013.1hPa SW 6.3mph /  10.1km/h 9.8mph /  15.8km/h 80% 0in /  0.0mm
14:53 47.3 °F /  8.5 °C 41.7 °F /  5.4 °C 29.9in /  1013.1hPa SSW 6mph /  9.7km/h 10.5mph /  16.9km/h 81% 0in /  0.0mm
14:58 47.1 °F /  8.4 °C 42.1 °F /  5.6 °C 29.9in /  1013.1hPa SSW 6.5mph /  10.5km/h 10.7mph /  17.2km/h 82% 0in /  0.0mm
15:03 46.9 °F /  8.3 °C 41.7 °F /  5.4 °C 29.9in /  1013.1hPa SSW 7.6mph /  12.2km/h 10.7mph /  17.2km/h 82% 0in /  0.0mm
15:08 46.9 °F /  8.3 °C 41.7 °F /  5.4 °C 29.9in /  1013.1hPa SSW 5.8mph /  9.3km/h 8.7mph /  14.0km/h 82% 0in /  0.0mm
15:13 46.9 °F /  8.3 °C 42.1 °F /  5.6 °C 29.9in /  1013.1hPa SW 5.4mph /  8.7km/h 8.7mph /  14.0km/h 83% 0in /  0.0mm
15:18 46.9 °F /  8.3 °C 42.1 °F /  5.6 °C 29.9in /  1013.1hPa SSW 4.9mph /  7.9km/h 6.7mph /  10.8km/h 83% 0in /  0.0mm
15:23 46.9 °F /  8.3 °C 42.1 °F /  5.6 °C 29.9in /  1012.1hPa SSW 5.4mph /  8.7km/h 7.6mph /  12.2km/h 83% 0in /  0.0mm
15:28 46.8 °F /  8.2 °C 41.9 °F /  5.5 °C 29.9in /  1012.1hPa SSW 3.8mph /  6.1km/h 7.6mph /  12.2km/h 83% 0in /  0.0mm
15:33 46.8 °F /  8.2 °C 41.9 °F /  5.5 °C 29.9in /  1012.1hPa SW 3.4mph /  5.5km/h 7.2mph /  11.6km/h 83% 0in /  0.0mm
15:38 46.9 °F /  8.3 °C 42.4 °F /  5.8 °C 29.9in /  1013.1hPa SW 3.8mph /  6.1km/h 5.8mph /  9.3km/h 84% 0in /  0.0mm
15:43 46.8 °F /  8.2 °C 42.3 °F /  5.7 °C 29.9in /  1013.1hPa SSW 5.6mph /  9.0km/h 5.8mph /  9.3km/h 84% 0in /  0.0mm
15:53 46.8 °F /  8.2 °C 42.3 °F /  5.7 °C 29.9in /  1013.1hPa Calm   5.8mph /  9.3km/h 84% 0in /  0.0mm
15:58 46.6 °F /  8.1 °C 42.1 °F /  5.6 °C 29.9in /  1013.1hPa SSW 1.3mph /  2.1km/h 4.9mph /  7.9km/h 84% 0in /  0.0mm
16:03 46.6 °F /  8.1 °C 42.1 °F /  5.6 °C 29.9in /  1013.1hPa Calm   5.8mph /  9.3km/h 84% 0in /  0.0mm
16:08 46.6 °F /  8.1 °C 42.1 °F /  5.6 °C 29.9in /  1013.1hPa Calm   5.8mph /  9.3km/h 84% 0in /  0.0mm
16:13 46.6 °F /  8.1 °C 41.9 °F /  5.5 °C 29.9in /  1013.1hPa SW 4.9mph /  7.9km/h 4.9mph /  7.9km/h 84% 0in /  0.0mm
16:18 46.6 °F /  8.1 °C 41.9 °F /  5.5 °C 29.9in /  1013.1hPa SSW 2.9mph /  4.7km/h 4.9mph /  7.9km/h 84% 0in /  0.0mm
16:23 46.2 °F /  7.9 °C 41.7 °F /  5.4 °C 29.9in /  1014.1hPa SSW 2.9mph /  4.7km/h 4.9mph /  7.9km/h 84% 0in /  0.0mm
16:28 46.2 °F /  7.9 °C 41.7 °F /  5.4 °C 29.9in /  1014.1hPa Calm   5.6mph /  9.0km/h 84% 0in /  0.0mm
16:33 46.2 °F /  7.9 °C 41.7 °F /  5.4 °C 29.9in /  1014.1hPa South 4mph /  6.4km/h 5.6mph /  9.0km/h 84% 0in /  0.0mm
16:38 46 °F /  7.8 °C 41.5 °F /  5.3 °C 29.9in /  1014.1hPa South 3.8mph /  6.1km/h 4.3mph /  6.9km/h 84% 0in /  0.0mm
16:43 46 °F /  7.8 °C 41.5 °F /  5.3 °C 29.9in /  1014.1hPa SW 2.7mph /  4.3km/h 4.3mph /  6.9km/h 84% 0in /  0.0mm
16:48 45.9 °F /  7.7 °C 41.7 °F /  5.4 °C 29.9in /  1014.1hPa South 4mph /  6.4km/h 6.5mph /  10.5km/h 85% 0in /  0.0mm
16:53 45.9 °F /  7.7 °C 41.5 °F /  5.3 °C 29.9in /  1013.1hPa South 2.7mph /  4.3km/h 6.5mph /  10.5km/h 85% 0in /  0.0mm
16:58 45.3 °F /  7.4 °C 41.2 °F /  5.1 °C 29.9in /  1013.1hPa South 2.2mph /  3.5km/h 4mph /  6.4km/h 85% 0in /  0.0mm
17:03 45.1 °F /  7.3 °C 40.8 °F /  4.9 °C 29.9in /  1013.1hPa South 2.9mph /  4.7km/h 3.8mph /  6.1km/h 85% 0in /  0.0mm
17:08 45 °F /  7.2 °C 40.6 °F /  4.8 °C 29.9in /  1014.1hPa South 2.5mph /  4.0km/h 3.6mph /  5.8km/h 85% 0in /  0.0mm
17:13 44.4 °F /  6.9 °C 40.3 °F /  4.6 °C 29.9in /  1014.1hPa SSW 3.8mph /  6.1km/h 4.5mph /  7.2km/h 85% 0in /  0.0mm
17:18 44.2 °F /  6.8 °C 40.1 °F /  4.5 °C 29.9in /  1014.1hPa SSW 3.8mph /  6.1km/h 4.5mph /  7.2km/h 85% 0in /  0.0mm
17:23 44.1 °F /  6.7 °C 40.1 °F /  4.5 °C 29.9in /  1014.1hPa SSE 4mph /  6.4km/h 5.6mph /  9.0km/h 86% 0in /  0.0mm
17:28 43.9 °F /  6.6 °C 39.9 °F /  4.4 °C 29.9in /  1014.1hPa SSW 3.8mph /  6.1km/h 5.6mph /  9.0km/h 86% 0in /  0.0mm
17:33 43.9 °F /  6.6 °C 40.3 °F /  4.6 °C 29.9in /  1014.1hPa South 2.7mph /  4.3km/h 5.4mph /  8.7km/h 87% 0in /  0.0mm
17:38 44.1 °F /  6.7 °C 40.5 °F /  4.7 °C 29.9in /  1014.1hPa South 3.4mph /  5.5km/h 5.4mph /  8.7km/h 87% 0in /  0.0mm
17:43 44.1 °F /  6.7 °C 40.5 °F /  4.7 °C 29.9in /  1014.1hPa South 4mph /  6.4km/h 5.4mph /  8.7km/h 87% 0in /  0.0mm
17:48 44.1 °F /  6.7 °C 40.6 °F /  4.8 °C 29.9in /  1014.1hPa SSW 3.8mph /  6.1km/h 5.4mph /  8.7km/h 88% 0in /  0.0mm
17:53 43.9 °F /  6.6 °C 40.5 °F /  4.7 °C 29.9in /  1014.1hPa South 2mph /  3.2km/h 4.5mph /  7.2km/h 88% 0in /  0.0mm
17:58 43.5 °F /  6.4 °C 40.3 °F /  4.6 °C 29.9in /  1014.1hPa SSW 2.5mph /  4.0km/h 4.9mph /  7.9km/h 88% 0in /  0.0mm
18:03 43.5 °F /  6.4 °C 40.3 °F /  4.6 °C 29.9in /  1014.1hPa South 4.3mph /  6.9km/h 4.9mph /  7.9km/h 88% 0in /  0.0mm
18:08 43.5 °F /  6.4 °C 40.5 °F /  4.7 °C 29.9in /  1014.1hPa South 5.6mph /  9.0km/h 5.6mph /  9.0km/h 89% 0in /  0.0mm
18:18 43.3 °F /  6.3 °C 40.3 °F /  4.6 °C 29.9in /  1014.1hPa South 2.7mph /  4.3km/h 4.9mph /  7.9km/h 89% 0in /  0.0mm
18:23 43.3 °F /  6.3 °C 40.3 °F /  4.6 °C 30in /  1015.1hPa South 2.7mph /  4.3km/h 6.3mph /  10.1km/h 89% 0in /  0.0mm
18:28 43.3 °F /  6.3 °C 40.6 °F /  4.8 °C 30in /  1015.1hPa SSW 3.1mph /  5.0km/h 6.3mph /  10.1km/h 90% 0in /  0.0mm
18:33 43.3 °F /  6.3 °C 40.6 °F /  4.8 °C 30in /  1015.1hPa SSW 3.6mph /  5.8km/h 5.6mph /  9.0km/h 90% 0in /  0.0mm
18:38 43.3 °F /  6.3 °C 40.8 °F /  4.9 °C 30in /  1015.1hPa SSW 2.7mph /  4.3km/h 4.9mph /  7.9km/h 91% 0in /  0.0mm
18:43 43.3 °F /  6.3 °C 40.8 °F /  4.9 °C 30in /  1015.1hPa SSW 3.8mph /  6.1km/h 4.5mph /  7.2km/h 91% 0in /  0.0mm
18:48 43.2 °F /  6.2 °C 40.6 °F /  4.8 °C 30in /  1015.1hPa SSW 4mph /  6.4km/h 5.6mph /  9.0km/h 91% 0in /  0.0mm
18:53 43.2 °F /  6.2 °C 40.6 °F /  4.8 °C 30in /  1015.1hPa SSW 6.9mph /  11.1km/h 6.9mph /  11.1km/h 91% 0in /  0.0mm
18:54 43.2 °F /  6.2 °C 40.6 °F /  4.8 °C 30in /  1015.1hPa SSW 4.9mph /  7.9km/h 6.9mph /  11.1km/h 91% 0in /  0.0mm
18:59 43.2 °F /  6.2 °C 40.6 °F /  4.8 °C 30in /  1015.1hPa SSW 3.6mph /  5.8km/h 8.1mph /  13.0km/h 91% 0in /  0.0mm
19:04 43.2 °F /  6.2 °C 40.8 °F /  4.9 °C 30in /  1015.1hPa SSW 6mph /  9.7km/h 8.1mph /  13.0km/h 92% 0in /  0.0mm
19:09 43.3 °F /  6.3 °C 41.2 °F /  5.1 °C 30in /  1015.1hPa SSW 7.2mph /  11.6km/h 9.6mph /  15.4km/h 92% 0in /  0.0mm
19:14 43.3 °F /  6.3 °C 41.2 °F /  5.1 °C 30in /  1015.1hPa SSW 5.8mph /  9.3km/h 9.6mph /  15.4km/h 92% 0in /  0.0mm
19:19 43.2 °F /  6.2 °C 40.8 °F /  4.9 °C 30in /  1015.1hPa SSW 4mph /  6.4km/h 7.8mph /  12.6km/h 92% 0in /  0.0mm
19:24 43.2 °F /  6.2 °C 40.8 °F /  4.9 °C 30in /  1015.1hPa SSW 4.3mph /  6.9km/h 8.1mph /  13.0km/h 92% 0in /  0.0mm
19:29 43.2 °F /  6.2 °C 41.2 °F /  5.1 °C 30in /  1015.1hPa SSW 5.6mph /  9.0km/h 8.1mph /  13.0km/h 93% 0in /  0.0mm
19:34 43.2 °F /  6.2 °C 41.2 °F /  5.1 °C 30in /  1015.1hPa SW 6.3mph /  10.1km/h 8.1mph /  13.0km/h 93% 0in /  0.0mm
19:44 42.8 °F /  6.0 °C 40.6 °F /  4.8 °C 30in /  1015.1hPa SSW 5.8mph /  9.3km/h 7.6mph /  12.2km/h 92% 0in /  0.0mm
19:49 42.4 °F /  5.8 °C 40.5 °F /  4.7 °C 30in /  1015.1hPa South 3.8mph /  6.1km/h 6.5mph /  10.5km/h 93% 0in /  0.0mm
19:59 42.1 °F /  5.6 °C 40.3 °F /  4.6 °C 30in /  1015.1hPa SW 4.9mph /  7.9km/h 6.5mph /  10.5km/h 93% 0in /  0.0mm
20:04 41.9 °F /  5.5 °C 39.9 °F /  4.4 °C 30in /  1015.1hPa South 6.3mph /  10.1km/h 6.3mph /  10.1km/h 93% 0in /  0.0mm
20:09 41.9 °F /  5.5 °C 39.9 °F /  4.4 °C 30in /  1015.1hPa SW 4mph /  6.4km/h 7.8mph /  12.6km/h 93% 0in /  0.0mm
20:14 41.7 °F /  5.4 °C 39.7 °F /  4.3 °C 30in /  1015.1hPa SSW 3.8mph /  6.1km/h 7.8mph /  12.6km/h 93% 0in /  0.0mm
20:19 41.5 °F /  5.3 °C 39.7 °F /  4.3 °C 30in /  1015.1hPa SW 4.9mph /  7.9km/h 7.6mph /  12.2km/h 93% 0in /  0.0mm
20:24 41.4 °F /  5.2 °C 39.6 °F /  4.2 °C 30in /  1015.1hPa SSW 5.6mph /  9.0km/h 7.6mph /  12.2km/h 93% 0in /  0.0mm
20:29 41.4 °F /  5.2 °C 39.6 °F /  4.2 °C 30in /  1015.1hPa SSW 5.8mph /  9.3km/h 6.7mph /  10.8km/h 93% 0in /  0.0mm
20:34 41.2 °F /  5.1 °C 39.4 °F /  4.1 °C 30in /  1015.1hPa SSW 4.3mph /  6.9km/h 6.7mph /  10.8km/h 93% 0in /  0.0mm
20:39 41.2 °F /  5.1 °C 39.6 °F /  4.2 °C 29.9in /  1014.1hPa WSW 5.4mph /  8.7km/h 6mph /  9.7km/h 94% 0in /  0.0mm
20:44 41 °F /  5.0 °C 39.4 °F /  4.1 °C 29.9in /  1014.1hPa SSW 4.7mph /  7.6km/h 6.9mph /  11.1km/h 94% 0in /  0.0mm
20:49 41 °F /  5.0 °C 39.4 °F /  4.1 °C 29.9in /  1014.1hPa SSW 6.5mph /  10.5km/h 6.9mph /  11.1km/h 94% 0in /  0.0mm
20:54 40.8 °F /  4.9 °C 39.2 °F /  4.0 °C 30in /  1015.1hPa SSW 3.8mph /  6.1km/h 6.5mph /  10.5km/h 94% 0in /  0.0mm
20:59 40.6 °F /  4.8 °C 39 °F /  3.9 °C 30in /  1015.1hPa SSW 7.4mph /  11.9km/h 7.4mph /  11.9km/h 94% 0in /  0.0mm
21:04 40.6 °F /  4.8 °C 39.4 °F /  4.1 °C 30in /  1015.1hPa South 3.8mph /  6.1km/h 7.4mph /  11.9km/h 95% 0in /  0.0mm
21:09 40.5 °F /  4.7 °C 39 °F /  3.9 °C 29.9in /  1014.1hPa South 4.9mph /  7.9km/h 6.5mph /  10.5km/h 95% 0in /  0.0mm
21:14 40.3 °F /  4.6 °C 39 °F /  3.9 °C 29.9in /  1014.1hPa SSW 5.6mph /  9.0km/h 6.3mph /  10.1km/h 95% 0in /  0.0mm
21:24 39.9 °F /  4.4 °C 38.7 °F /  3.7 °C 30in /  1015.1hPa SSW 4.7mph /  7.6km/h 6.3mph /  10.1km/h 95% 0in /  0.0mm
21:29 39.7 °F /  4.3 °C 38.5 °F /  3.6 °C 30in /  1015.1hPa SSW 3.6mph /  5.8km/h 6.5mph /  10.5km/h 95% 0in /  0.0mm
21:34 39.7 °F /  4.3 °C 38.5 °F /  3.6 °C 30in /  1015.1hPa SSW 4mph /  6.4km/h 6.5mph /  10.5km/h 95% 0in /  0.0mm
21:39 39.6 °F /  4.2 °C 38.3 °F /  3.5 °C 30in /  1015.1hPa SSW 5.4mph /  8.7km/h 6.5mph /  10.5km/h 95% 0in /  0.0mm
21:44 39.6 °F /  4.2 °C 38.3 °F /  3.5 °C 30in /  1015.1hPa SSW 4.7mph /  7.6km/h 6.5mph /  10.5km/h 95% 0in /  0.0mm
21:49 39.4 °F /  4.1 °C 38.1 °F /  3.4 °C 30in /  1015.1hPa SSW 3.1mph /  5.0km/h 6.5mph /  10.5km/h 95% 0in /  0.0mm
21:54 39.2 °F /  4.0 °C 37.9 °F /  3.3 °C 30in /  1015.1hPa SSW 4.3mph /  6.9km/h 6.5mph /  10.5km/h 95% 0in /  0.0mm
21:59 39.2 °F /  4.0 °C 37.9 °F /  3.3 °C 30in /  1015.1hPa South 3.8mph /  6.1km/h 6.5mph /  10.5km/h 95% 0in /  0.0mm
22:04 39 °F /  3.9 °C 37.8 °F /  3.2 °C 30in /  1015.1hPa SSW 4mph /  6.4km/h 7.4mph /  11.9km/h 95% 0in /  0.0mm
22:14 39 °F /  3.9 °C 37.9 °F /  3.3 °C 30in /  1015.1hPa WSW 3.8mph /  6.1km/h 6.3mph /  10.1km/h 96% 0in /  0.0mm
22:19 38.8 °F /  3.8 °C 37.8 °F /  3.2 °C 30in /  1015.1hPa SSW 4.9mph /  7.9km/h 6.3mph /  10.1km/h 96% 0in /  0.0mm
22:24 38.7 °F /  3.7 °C 37.8 °F /  3.2 °C 30in /  1016.1hPa WSW 3.8mph /  6.1km/h 6.3mph /  10.1km/h 96% 0in /  0.0mm
22:29 38.7 °F /  3.7 °C 37.8 °F /  3.2 °C 30in /  1016.1hPa SW 4.9mph /  7.9km/h 6.3mph /  10.1km/h 96% 0in /  0.0mm
22:34 38.7 °F /  3.7 °C 37.8 °F /  3.2 °C 30in /  1016.1hPa SW 2.7mph /  4.3km/h 6.3mph /  10.1km/h 96% 0in /  0.0mm
22:39 38.7 °F /  3.7 °C 37.8 °F /  3.2 °C 30in /  1016.1hPa SSW 3.1mph /  5.0km/h 7.2mph /  11.6km/h 96% 0in /  0.0mm
22:44 38.7 °F /  3.7 °C 37.8 °F /  3.2 °C 30in /  1016.1hPa SW 2.9mph /  4.7km/h 7.2mph /  11.6km/h 96% 0in /  0.0mm
22:49 38.7 °F /  3.7 °C 37.8 °F /  3.2 °C 30in /  1016.1hPa SSW 3.1mph /  5.0km/h 6.5mph /  10.5km/h 96% 0in /  0.0mm
22:54 38.7 °F /  3.7 °C 37.9 °F /  3.3 °C 30in /  1016.1hPa SW 2.5mph /  4.0km/h 6.5mph /  10.5km/h 97% 0in /  0.0mm
22:59 38.7 °F /  3.7 °C 37.9 °F /  3.3 °C 30in /  1016.1hPa SSW 4.7mph /  7.6km/h 5.8mph /  9.3km/h 97% 0in /  0.0mm
23:04 38.8 °F /  3.8 °C 38.1 °F /  3.4 °C 30in /  1016.1hPa SSW 8.7mph /  14.0km/h 8.7mph /  14.0km/h 97% 0in /  0.0mm
23:09 39 °F /  3.9 °C 38.3 °F /  3.5 °C 30in /  1016.1hPa SW 4.9mph /  7.9km/h 8.7mph /  14.0km/h 97% 0in /  0.0mm
23:14 39 °F /  3.9 °C 38.3 °F /  3.5 °C 30in /  1016.1hPa SW 4.5mph /  7.2km/h 7.4mph /  11.9km/h 97% 0in /  0.0mm
23:19 39.2 °F /  4.0 °C 38.5 °F /  3.6 °C 30in /  1016.1hPa WSW 5.8mph /  9.3km/h 7.4mph /  11.9km/h 97% 0in /  0.0mm
23:24 39.6 °F /  4.2 °C 38.8 °F /  3.8 °C 30in /  1016.1hPa SSW 5.6mph /  9.0km/h 8.1mph /  13.0km/h 97% 0in /  0.0mm
23:29 39.6 °F /  4.2 °C 38.8 °F /  3.8 °C 30in /  1016.1hPa SSW 3.6mph /  5.8km/h 8.1mph /  13.0km/h 97% 0in /  0.0mm
23:34 39.6 °F /  4.2 °C 38.8 °F /  3.8 °C 30in /  1016.1hPa SW 2.9mph /  4.7km/h 6.5mph /  10.5km/h 97% 0in /  0.0mm
23:39 39.6 °F /  4.2 °C 38.8 °F /  3.8 °C 30in /  1016.1hPa SSW 4.7mph /  7.6km/h 6mph /  9.7km/h 97% 0in /  0.0mm
23:44 39.6 °F /  4.2 °C 38.8 °F /  3.8 °C 30in /  1016.1hPa SSW 2.5mph /  4.0km/h 5.8mph /  9.3km/h 97% 0in /  0.0mm
23:49 39.4 °F /  4.1 °C 38.7 °F /  3.7 °C 30in /  1016.1hPa SSW 0.9mph /  1.4km/h 5.4mph /  8.7km/h 97% 0in /  0.0mm
23:54 39.4 °F /  4.1 °C 38.5 °F /  3.6 °C 30in /  1016.1hPa South 4.3mph /  6.9km/h 5.6mph /  9.0km/h 96% 0in /  0.0mm
23:59 39.4 °F /  4.1 °C 38.5 °F /  3.6 °C 30in /  1016.1hPa SSW 3.1mph /  5.0km/h 6.3mph /  10.1km/h 96% 0in /  0.0mm
Données Historique de Météo Turbie

Mise a jour : 26/05/2018 15:42:12
Généré par Cumulus 1.9.4 (1099)